Time;durP1;ratioP1;P1;durP2;ratioP2;P2;SDS_P1;SDS_P2;PMS_P1;PMS_P2;Temp;Humidity;BMP_temperature;BMP_pressure;BME280_temperature;BME280_humidity;BME280_pressure;Samples;Min_cycle;Max_cycle;Signal;HPM_P1;HPM_P2
2021/06/26 00:01:55;;;;;;;18.77;12.35;;;;;;;21.44;68.58;99493.06;4917346;29;20063;-71
2021/06/26 00:04:27;;;;;;;19.13;12.75;;;;;;;21.45;68.47;99499.97;4916930;29;20143;-68
2021/06/26 00:07:00;;;;;;;18.75;12.88;;;;;;;21.44;68.67;99493.06;4917063;29;20131;-69
2021/06/26 00:09:29;;;;;;;20.52;12.98;;;;;;;21.44;68.61;99495.66;4917493;29;20066;-69
2021/06/26 00:12:02;;;;;;;19.70;12.05;;;;;;;21.41;68.66;99488.00;4917141;29;20063;-70
2021/06/26 00:14:31;;;;;;;19.98;12.70;;;;;;;21.48;68.41;99503.25;4917405;29;20135;-70
2021/06/26 00:17:06;;;;;;;;;;;;;;;21.52;68.25;99506.53;4917329;29;20048;-70
2021/06/26 00:19:43;;;;;;;20.25;12.00;;;;;;;21.60;67.76;99515.63;4917129;29;19923;-69
2021/06/26 00:22:15;;;;;;;20.98;13.50;;;;;;;21.67;67.64;99526.56;4917415;29;20150;-70
2021/06/26 00:24:47;;;;;;;20.00;13.07;;;;;;;21.61;67.46;99526.88;4917341;29;20048;-70
2021/06/26 00:27:20;;;;;;;20.70;12.80;;;;;;;21.59;67.69;99531.31;4917293;29;20088;-70
2021/06/26 00:29:55;;;;;;;16.98;12.02;;;;;;;21.53;67.74;99528.97;4917045;29;20055;-70
2021/06/26 00:32:28;;;;;;;17.92;12.82;;;;;;;21.54;68.14;99526.34;4916999;29;20067;-70
2021/06/26 00:35:12;;;;;;;18.48;12.45;;;;;;;21.61;67.83;99532.06;4917078;29;20373;-70
2021/06/26 00:37:44;;;;;;;18.25;12.30;;;;;;;21.61;67.53;99532.06;4916736;29;20052;-70
2021/06/26 00:40:14;;;;;;;20.05;13.13;;;;;;;21.60;67.69;99532.97;4918649;29;20056;-69
2021/06/26 00:42:47;;;;;;;19.75;13.02;;;;;;;21.55;67.62;99533.19;4920070;29;20048;-69
2021/06/26 00:45:20;;;;;;;20.27;13.27;;;;;;;21.41;67.90;99524.38;4920197;29;20052;-70
2021/06/26 00:47:53;;;;;;;18.73;13.05;;;;;;;21.44;68.26;99545.00;4919923;29;20051;-69
2021/06/26 00:50:29;;;;;;;20.63;12.68;;;;;;;21.44;68.31;99547.59;4919927;29;20156;-70
2021/06/26 00:53:03;;;;;;;21.40;12.88;;;;;;;21.34;68.47;99545.44;4920113;29;20492;-70
2021/06/26 00:55:32;;;;;;;19.77;13.57;;;;;;;21.22;68.73;99559.00;4920138;29;20468;-70
2021/06/26 00:58:02;;;;;;;19.02;12.95;;;;;;;21.05;69.47;99563.25;4919723;29;20107;-71
2021/06/26 01:00:32;;;;;;;21.05;13.48;;;;;;;20.96;70.28;99569.69;4919723;29;20047;-70
2021/06/26 01:03:02;;;;;;;19.48;13.07;;;;;;;21.00;70.32;99576.41;4919762;29;20052;-71
2021/06/26 01:05:32;;;;;;;21.50;14.55;;;;;;;20.92;70.39;99588.91;4919559;29;20127;-71
2021/06/26 01:08:01;;;;;;;22.08;14.18;;;;;;;20.43;71.23;99594.50;4919620;29;20056;-69
2021/06/26 01:10:31;;;;;;;24.88;14.82;;;;;;;20.14;72.39;99589.66;4919794;29;20416;-71
2021/06/26 01:13:01;;;;;;;22.35;15.18;;;;;;;19.65;73.42;99578.66;4919815;29;20051;-71
2021/06/26 01:15:36;;;;;;;22.73;14.43;;;;;;;19.65;74.26;99578.66;4919514;29;20044;-70
2021/06/26 01:18:06;;;;;;;20.17;13.25;;;;;;;19.87;74.42;99573.47;4919661;29;20055;-70
2021/06/26 01:20:40;;;;;;;23.88;13.40;;;;;;;20.11;73.87;99566.47;4919573;29;20075;-71
2021/06/26 01:23:19;;;;;;;17.35;12.20;;;;;;;20.44;72.70;99567.69;4919387;29;20143;-70
2021/06/26 01:25:48;;;;;;;18.08;12.10;;;;;;;20.67;71.66;99572.72;4919332;29;20131;-70
2021/06/26 01:28:18;;;;;;;19.20;11.68;;;;;;;20.84;70.54;99566.78;4919243;29;20048;-70
2021/06/26 01:30:47;;;;;;;18.98;12.25;;;;;;;21.00;69.59;99575.56;4919204;29;20552;-70
2021/06/26 01:33:16;;;;;;;17.45;11.95;;;;;;;21.08;69.13;99569.16;4919197;29;20044;-70
2021/06/26 01:35:48;;;;;;;17.92;11.48;;;;;;;21.09;68.67;99578.63;4919158;29;20040;-70
2021/06/26 01:38:19;;;;;;;16.67;11.60;;;;;;;21.05;68.75;99569.31;4919363;29;20404;-70
2021/06/26 01:40:48;;;;;;;18.13;11.55;;;;;;;21.06;68.57;99573.59;4919136;29;20052;-70
2021/06/26 01:43:17;;;;;;;17.75;10.18;;;;;;;21.04;68.44;99567.56;4918951;29;20123;-71
2021/06/26 01:45:46;;;;;;;13.65;10.60;;;;;;;20.93;68.47;99549.06;4918964;29;20047;-70
2021/06/26 01:48:17;;;;;;;14.00;9.88;;;;;;;20.98;68.71;99562.66;4918973;29;20048;-70
2021/06/26 01:50:46;;;;;;;15.13;9.88;;;;;;;21.00;68.62;99567.78;4918745;29;20054;-71
2021/06/26 01:53:19;;;;;;;11.57;8.60;;;;;;;21.10;68.28;99566.50;4918818;29;20099;-71
2021/06/26 01:55:51;;;;;;;11.48;8.15;;;;;;;21.17;67.71;99563.56;4918787;29;20070;-70
2021/06/26 01:58:21;;;;;;;11.68;7.53;;;;;;;21.17;67.30;99563.56;4918715;29;20062;-70
2021/06/26 02:00:49;;;;;;;11.25;7.82;;;;;;;21.19;66.83;99566.91;4918680;29;20476;-70
2021/06/26 02:03:19;;;;;;;13.13;8.20;;;;;;;21.19;66.66;99561.72;4918790;29;20123;-72
2021/06/26 02:05:51;;;;;;;11.23;8.00;;;;;;;21.21;66.71;99557.31;4918892;29;20052;-70
2021/06/26 02:08:26;;;;;;;12.82;7.90;;;;;;;21.24;66.63;99559.75;4918807;29;20125;-70
2021/06/26 02:10:58;;;;;;;10.18;8.18;;;;;;;21.17;66.98;99563.56;4918370;29;20081;-70
2021/06/26 02:13:31;;;;;;;11.18;8.35;;;;;;;21.17;67.20;99568.75;4918708;29;20055;-70
2021/06/26 02:16:04;;;;;;;12.88;8.65;;;;;;;21.11;67.40;99571.63;4918943;29;20063;-70
2021/06/26 02:18:36;;;;;;;11.18;8.20;;;;;;;21.14;67.46;99574.06;4918409;29;20040;-70
2021/06/26 02:21:09;;;;;;;12.18;8.27;;;;;;;21.17;67.33;99584.31;4918615;29;20071;-70
2021/06/26 02:23:44;;;;;;;13.60;8.73;;;;;;;21.13;67.22;99587.97;4917516;29;20412;-70
2021/06/26 02:26:16;;;;;;;11.70;8.45;;;;;;;21.03;67.55;99586.66;4919578;29;20090;-70
2021/06/26 02:28:49;;;;;;;13.90;8.73;;;;;;;20.97;67.75;99591.31;4918479;29;20056;-70
2021/06/26 02:31:21;;;;;;;12.02;8.63;;;;;;;20.98;68.20;99593.81;4918316;29;20119;-70
2021/06/26 02:33:53;;;;;;;12.45;8.60;;;;;;;20.85;68.45;99603.03;4918169;29;20052;-70
2021/06/26 02:36:26;;;;;;;12.18;8.10;;;;;;;20.70;68.75;99598.53;4918270;29;20059;-70
2021/06/26 02:38:57;;;;;;;13.65;9.55;;;;;;;20.66;68.86;99602.16;4918004;29;20048;-71
2021/06/26 02:41:26;;;;;;;12.70;9.18;;;;;;;20.50;69.37;99601.13;4917942;29;20079;-70
2021/06/26 02:43:55;;;;;;;15.77;10.00;;;;;;;20.48;69.74;99598.59;4918049;29;20067;-70
2021/06/26 02:46:24;;;;;;;13.57;9.48;;;;;;;20.38;70.23;99609.41;4917973;29;20044;-70
2021/06/26 02:48:54;;;;;;;14.63;10.30;;;;;;;20.37;70.83;99605.16;4917996;29;20444;-70
2021/06/26 02:51:23;;;;;;;18.23;10.43;;;;;;;20.28;71.30;99605.50;4916767;29;20047;-70
2021/06/26 02:53:53;;;;;;;15.90;10.05;;;;;;;20.31;71.70;99605.41;4917776;29;20076;-70
2021/06/26 02:56:24;;;;;;;14.27;10.63;;;;;;;20.39;71.85;99598.16;4917734;29;20060;-70
2021/06/26 02:58:57;;;;;;;16.52;10.48;;;;;;;20.60;70.77;99602.41;4918008;29;20056;-69
2021/06/26 03:01:29;;;;;;;14.98;10.65;;;;;;;20.74;70.15;99594.88;4918525;29;20059;-70
2021/06/26 03:04:01;;;;;;;14.52;9.90;;;;;;;20.76;69.96;99595.66;4916597;29;20420;-70
2021/06/26 03:06:34;;;;;;;16.52;10.57;;;;;;;20.79;70.12;99592.94;4918349;29;20131;-70
2021/06/26 03:09:05;;;;;;;18.25;11.85;;;;;;;20.91;69.53;99596.75;4917590;29;20055;-70
2021/06/26 03:11:39;;;;;;;18.20;11.63;;;;;;;20.98;69.28;99604.19;4916670;29;20059;-70
2021/06/26 03:14:08;;;;;;;17.73;12.25;;;;;;;21.06;68.80;99602.16;4917567;29;20083;-69
2021/06/26 03:16:40;;;;;;;19.00;12.73;;;;;;;21.09;68.89;99602.00;4917399;29;20052;-70
2021/06/26 03:19:10;;;;;;;18.90;12.30;;;;;;;21.05;69.24;99604.78;4917429;29;20048;-70
2021/06/26 03:21:42;;;;;;;19.35;13.10;;;;;;;20.88;70.44;99600.31;4917619;29;20055;-70
2021/06/26 03:24:12;;;;;;;19.48;12.88;;;;;;;20.86;71.15;99602.13;4917393;29;20080;-70
2021/06/26 03:26:46;;;;;;;25.40;13.63;;;;;;;20.63;71.94;99607.50;4917567;29;20492;-71
2021/06/26 03:29:15;;;;;;;21.38;13.40;;;;;;;20.63;72.63;99603.16;4917273;29;20508;-70
2021/06/26 03:31:44;;;;;;;22.05;13.90;;;;;;;20.66;72.87;99604.75;4917434;29;20068;-70
2021/06/26 03:34:13;;;;;;;24.50;14.70;;;;;;;20.63;72.78;99608.34;4917407;29;20068;-71
2021/06/26 03:36:42;;;;;;;22.85;14.55;;;;;;;20.61;72.73;99617.09;4917240;29;20514;-71
2021/06/26 03:39:11;;;;;;;26.13;15.65;;;;;;;20.61;73.03;99609.31;4917202;29;20087;-70
2021/06/26 03:41:40;;;;;;;26.30;16.45;;;;;;;20.51;73.46;99615.78;4917273;29;20048;-71
2021/06/26 03:44:11;;;;;;;25.08;15.35;;;;;;;20.36;74.04;99616.41;4917068;29;20504;-71
2021/06/26 03:46:43;;;;;;;29.30;15.82;;;;;;;20.17;74.90;99607.69;4917252;29;20108;-70
2021/06/26 03:49:12;;;;;;;26.40;15.82;;;;;;;20.23;75.07;99612.66;4917305;29;20060;-70
2021/06/26 03:51:45;;;;;;;25.95;17.25;;;;;;;20.22;75.43;99621.28;4917327;29;20060;-70
2021/06/26 03:54:14;;;;;;;25.23;16.00;;;;;;;20.16;75.96;99621.53;4917283;29;20064;-70
2021/06/26 03:56:46;;;;;;;26.15;16.30;;;;;;;20.08;76.29;99614.91;4917294;29;20511;-70
2021/06/26 03:59:17;;;;;;;27.23;17.27;;;;;;;20.03;76.90;99621.22;4917096;29;20052;-70
2021/06/26 04:01:53;;;;;;;25.27;16.35;;;;;;;19.96;77.33;99614.59;4917308;29;20095;-70
2021/06/26 04:04:22;;;;;;;25.83;16.45;;;;;;;19.93;77.60;99620.72;4916531;29;20064;-70
2021/06/26 04:06:55;;;;;;;26.38;17.63;;;;;;;19.91;77.91;99607.00;4917235;29;20464;-71
2021/06/26 04:09:24;;;;;;;27.02;18.13;;;;;;;20.08;77.78;99608.06;4917225;29;20127;-70
2021/06/26 04:11:56;;;;;;;;;;;;;;;20.26;77.53;99607.31;4917602;29;20377;-70
2021/06/26 04:14:27;;;;;;;27.60;17.08;;;;;;;20.47;77.09;99606.44;4919503;29;19956;-70
2021/06/26 04:17:00;;;;;;;32.97;17.95;;;;;;;20.50;76.61;99598.53;4920601;29;20056;-69
2021/06/26 04:19:29;;;;;;;25.98;17.88;;;;;;;20.54;76.32;99602.66;4920859;29;20083;-70
2021/06/26 04:22:01;;;;;;;;;;;;;;;20.75;76.11;99601.78;4921107;29;20063;-69
2021/06/26 04:24:33;;;;;;;26.25;17.08;;;;;;;20.90;75.38;99601.09;4920663;29;19923;-70
2021/06/26 04:27:06;;;;;;;26.38;16.52;;;;;;;20.97;74.95;99597.31;4920602;29;20082;-70
2021/06/26 04:29:40;;;;;;;26.83;17.30;;;;;;;21.03;74.75;99591.84;4920578;29;20496;-70
2021/06/26 04:32:14;;;;;;;27.17;17.48;;;;;;;21.25;74.01;99594.38;4920529;29;20079;-69
2021/06/26 04:34:44;;;;;;;24.52;16.10;;;;;;;21.56;72.91;99592.03;4920497;29;20084;-69
2021/06/26 04:37:17;;;;;;;;;;;;;;;21.77;72.33;99584.97;4920778;29;20063;-68
2021/06/26 04:39:49;;;;;;;26.13;16.80;;;;;;;21.96;71.59;99593.59;4920137;29;19923;-69
2021/06/26 04:42:55;;;;;;;25.17;16.75;;;;;;;21.98;70.63;99589.16;4308072;26;20495;-68
2021/06/26 04:45:30;;;;;;;24.50;16.52;;;;;;;21.88;70.72;99593.16;4939294;29;20058;-69
2021/06/26 04:48:03;;;;;;;23.38;16.52;;;;;;;21.89;70.75;99590.47;4939299;29;20045;-69
2021/06/26 04:50:36;;;;;;;24.08;16.48;;;;;;;21.92;70.54;99584.28;4938976;29;20055;-68
2021/06/26 04:53:12;;;;;;;23.08;16.48;;;;;;;22.11;70.69;99589.41;4939179;29;20056;-68
2021/06/26 04:55:51;;;;;;;22.85;15.35;;;;;;;22.36;70.14;99585.50;4939436;29;20075;-68
2021/06/26 04:58:25;;;;;;;22.67;16.00;;;;;;;22.44;69.55;99593.78;4939285;29;20059;-68
2021/06/26 05:00:59;;;;;;;22.95;16.15;;;;;;;22.62;68.90;99595.50;4939349;29;20048;-68
2021/06/26 05:03:32;;;;;;;22.73;15.50;;;;;;;22.77;68.40;99591.25;4938956;29;20063;-68
2021/06/26 05:06:08;;;;;;;22.42;16.30;;;;;;;22.89;68.20;99590.59;4938891;29;20558;-68
2021/06/26 05:08:37;;;;;;;21.63;15.27;;;;;;;23.08;67.46;99596.53;4938895;29;20423;-69
2021/06/26 05:11:09;;;;;;;22.58;15.50;;;;;;;23.11;66.97;99574.69;4938904;29;20052;-68
2021/06/26 05:13:39;;;;;;;21.90;14.75;;;;;;;23.31;66.44;99592.69;4938813;29;20060;-68
2021/06/26 05:16:09;;;;;;;22.10;14.65;;;;;;;23.42;65.53;99594.78;4938469;29;20554;-68
2021/06/26 05:18:38;;;;;;;22.00;15.77;;;;;;;23.49;64.47;99601.31;4938441;29;20103;-68
2021/06/26 05:21:13;;;;;;;22.13;14.93;;;;;;;23.61;63.72;99598.88;4938687;29;20052;-68
2021/06/26 05:23:43;;;;;;;19.02;14.40;;;;;;;23.71;63.62;99602.66;4939136;29;20440;-68
2021/06/26 05:26:15;;;;;;;;;;;;;;;23.76;62.80;99599.78;4938128;29;20055;-67
2021/06/26 05:28:47;;;;;;;21.67;14.55;;;;;;;23.88;62.03;99605.16;4938338;29;20363;-68
2021/06/26 05:31:19;;;;;;;22.75;15.93;;;;;;;23.96;61.58;99602.97;4938476;29;20152;-66
2021/06/26 05:33:49;;;;;;;19.40;13.93;;;;;;;23.99;61.30;99613.19;4938221;29;20056;-68
2021/06/26 05:36:18;;;;;;;20.33;14.73;;;;;;;24.17;60.68;99615.72;4938076;29;20044;-68
2021/06/26 05:38:48;;;;;;;19.85;14.85;;;;;;;24.13;60.27;99620.28;4938338;29;20525;-68
2021/06/26 05:41:17;;;;;;;19.25;13.75;;;;;;;24.23;60.13;99615.41;4937898;29;20048;-67
2021/06/26 05:43:46;;;;;;;21.45;14.90;;;;;;;24.35;59.68;99614.69;4938037;29;20056;-68
2021/06/26 05:46:20;;;;;;;23.45;15.38;;;;;;;24.42;59.50;99618.63;4936694;29;20508;-67
2021/06/26 05:48:52;;;;;;;20.30;14.65;;;;;;;24.31;58.58;99606.19;4938139;29;20380;-67
2021/06/26 05:51:22;;;;;;;22.33;14.43;;;;;;;24.47;58.46;99611.38;4938085;29;20066;-67
2021/06/26 05:53:54;;;;;;;20.48;14.13;;;;;;;24.57;58.22;99608.09;4937958;29;20071;-67
2021/06/26 05:56:26;;;;;;;19.73;14.85;;;;;;;24.52;57.97;99606.72;4937966;29;20056;-66
2021/06/26 05:58:59;;;;;;;19.55;14.35;;;;;;;24.61;57.83;99611.41;4937912;29;20065;-66
2021/06/26 06:01:31;;;;;;;21.85;14.25;;;;;;;24.62;57.54;99602.63;4937895;29;20403;-67
2021/06/26 06:04:00;;;;;;;20.63;14.63;;;;;;;24.73;57.36;99618.50;4937750;29;20059;-67
2021/06/26 06:06:29;;;;;;;19.38;14.73;;;;;;;24.78;57.20;99613.88;4937923;29;20052;-66
2021/06/26 06:08:58;;;;;;;;;;;;;;;24.78;56.78;99624.31;4938299;29;20052;-67
2021/06/26 06:11:27;;;;;;;21.07;14.80;;;;;;;24.79;56.69;99625.13;4937457;29;19962;-67
2021/06/26 06:13:59;;;;;;;;;;;;;;;24.85;56.46;99620.41;4938048;29;20098;-66
2021/06/26 06:16:28;;;;;;;19.23;14.05;;;;;;;24.95;56.51;99621.53;4937436;29;20298;-67
2021/06/26 06:19:00;;;;;;;20.52;14.88;;;;;;;25.06;55.93;99623.47;4937281;29;20048;-67
2021/06/26 06:21:29;;;;;;;21.75;15.02;;;;;;;25.02;55.84;99630.69;4937310;29;20550;-67
2021/06/26 06:24:00;;;;;;;19.75;14.30;;;;;;;25.01;55.84;99615.94;4937242;29;20522;-67
2021/06/26 06:26:29;;;;;;;20.13;14.57;;;;;;;25.08;55.78;99632.91;4937755;29;20130;-67
2021/06/26 06:28:58;;;;;;;20.60;14.68;;;;;;;25.14;55.59;99637.78;4936999;29;20071;-67
2021/06/26 06:31:27;;;;;;;19.38;15.00;;;;;;;25.18;55.44;99634.03;4937057;29;20456;-65
2021/06/26 06:33:56;;;;;;;19.52;14.05;;;;;;;25.20;55.48;99634.78;4936298;29;20039;-66
2021/06/26 06:36:27;;;;;;;23.02;15.75;;;;;;;25.28;55.75;99635.16;4935569;29;20039;-66
2021/06/26 06:38:56;;;;;;;22.00;15.15;;;;;;;25.34;55.50;99633.09;4936277;29;20106;-68
2021/06/26 06:41:25;;;;;;;20.92;14.75;;;;;;;25.38;55.16;99629.34;4936632;29;20059;-66
2021/06/26 06:43:54;;;;;;;;;;;;;;;25.50;54.77;99634.69;4937527;29;20099;-66
2021/06/26 06:46:23;;;;;;;20.23;14.55;;;;;;;25.45;54.73;99636.75;4937333;29;19934;-69
2021/06/26 06:48:55;;;;;;;20.85;14.32;;;;;;;25.51;54.71;99645.97;4936866;29;20570;-67
2021/06/26 06:51:26;;;;;;;19.63;14.88;;;;;;;25.58;54.53;99629.00;4936974;29;20062;-68
2021/06/26 06:53:58;;;;;;;23.58;15.52;;;;;;;25.72;54.51;99629.78;4936978;29;20052;-65
2021/06/26 06:56:30;;;;;;;22.17;15.20;;;;;;;25.86;54.47;99628.91;4936885;29;20071;-66
2021/06/26 06:59:02;;;;;;;20.60;13.95;;;;;;;25.80;53.50;99622.28;4937108;29;20055;-67
2021/06/26 07:01:32;;;;;;;19.92;14.93;;;;;;;25.93;53.59;99643.28;4936565;29;20048;-67
2021/06/26 07:04:02;;;;;;;19.33;14.13;;;;;;;26.02;53.14;99631.38;4936745;29;20119;-67
2021/06/26 07:06:33;;;;;;;20.20;15.15;;;;;;;26.17;52.92;99641.72;4936428;29;20388;-66
2021/06/26 07:09:06;;;;;;;19.23;13.68;;;;;;;26.29;53.01;99635.69;4936582;29;20055;-66
2021/06/26 07:11:36;;;;;;;18.98;13.55;;;;;;;26.45;52.54;99646.81;4936566;29;20484;-67
2021/06/26 07:14:07;;;;;;;;;;;;;;;26.56;51.88;99639.06;4937076;29;20110;-67
2021/06/26 07:16:37;;;;;;;19.45;13.95;;;;;;;26.59;51.67;99638.88;4936547;29;19995;-67
2021/06/26 07:19:08;;;;;;;19.15;13.75;;;;;;;26.63;50.99;99643.91;4936392;29;20051;-67
2021/06/26 07:21:38;;;;;;;20.50;13.70;;;;;;;26.55;50.89;99647.03;4935047;29;20460;-67
2021/06/26 07:24:08;;;;;;;17.70;13.95;;;;;;;26.57;50.63;99638.16;4936364;29;20059;-66
2021/06/26 07:26:39;;;;;;;17.13;12.68;;;;;;;26.68;50.57;99636.59;4934965;29;20091;-66
2021/06/26 07:29:08;;;;;;;17.55;13.40;;;;;;;26.76;50.11;99655.25;4936159;29;20103;-66
2021/06/26 07:31:37;;;;;;;18.70;13.45;;;;;;;26.52;49.85;99648.09;4936514;29;20052;-67
2021/06/26 07:34:06;;;;;;;19.17;14.80;;;;;;;26.68;50.24;99657.53;4936526;29;20127;-66
2021/06/26 07:36:36;;;;;;;16.70;12.90;;;;;;;26.81;49.54;99642.69;4936456;29;20044;-66
2021/06/26 07:39:08;;;;;;;18.05;13.70;;;;;;;26.98;49.90;99639.75;4936126;29;20147;-70
2021/06/26 07:41:37;;;;;;;18.95;13.93;;;;;;;27.04;49.68;99640.19;4935900;29;20059;-66
2021/06/26 07:44:06;;;;;;;18.42;13.15;;;;;;;27.00;49.61;99648.34;4936117;29;20059;-67
2021/06/26 07:46:35;;;;;;;18.15;13.77;;;;;;;26.92;49.06;99619.25;4936038;29;20060;-66
2021/06/26 07:49:04;;;;;;;18.60;13.45;;;;;;;26.99;48.57;99630.97;4937491;29;20055;-68
2021/06/26 07:51:33;;;;;;;17.58;13.00;;;;;;;27.07;49.38;99634.72;4939879;29;20075;-67
2021/06/26 07:54:02;;;;;;;17.17;13.60;;;;;;;27.14;49.19;99637.75;4939965;29;20519;-67
2021/06/26 07:56:34;;;;;;;;;;;;;;;27.14;48.44;99635.97;4940361;29;20388;-66
2021/06/26 07:59:03;;;;;;;15.05;11.88;;;;;;;27.22;48.65;99640.69;4939874;29;19930;-66
2021/06/26 08:01:32;;;;;;;18.27;13.07;;;;;;;27.27;48.13;99634.19;4940516;29;20055;-67
2021/06/26 08:04:02;;;;;;;17.33;13.25;;;;;;;27.40;47.95;99636.00;4939713;29;20047;-67
2021/06/26 08:06:31;;;;;;;16.70;12.52;;;;;;;27.47;48.09;99621.50;4939721;29;20078;-67
2021/06/26 08:09:00;;;;;;;17.23;12.60;;;;;;;27.51;47.76;99629.03;4939607;29;20051;-67
2021/06/26 08:11:29;;;;;;;16.77;13.02;;;;;;;27.66;47.81;99617.47;4939464;29;20131;-67
2021/06/26 08:13:59;;;;;;;18.63;11.65;;;;;;;27.87;46.79;99626.41;4935993;29;20048;-67
2021/06/26 08:16:30;;;;;;;14.93;11.48;;;;;;;27.78;46.06;99619.19;4939156;29;20439;-67
2021/06/26 08:19:01;;;;;;;16.33;11.98;;;;;;;27.84;46.11;99631.84;4939030;29;20075;-67
2021/06/26 08:21:31;;;;;;;16.63;12.88;;;;;;;27.97;46.47;99625.72;4939147;29;20098;-70
2021/06/26 08:24:00;;;;;;;15.77;11.65;;;;;;;27.97;46.08;99620.47;4939197;29;20139;-67
2021/06/26 08:26:30;;;;;;;15.63;12.18;;;;;;;28.03;45.97;99622.66;4939221;29;20056;-67
2021/06/26 08:29:00;;;;;;;16.13;12.45;;;;;;;28.24;46.30;99623.75;4939205;29;20036;-69
2021/06/26 08:31:29;;;;;;;17.40;12.88;;;;;;;28.20;46.42;99617.84;4939147;29;20063;-67
2021/06/26 08:33:58;;;;;;;15.05;11.48;;;;;;;28.37;46.56;99612.19;4939078;29;20052;-67
2021/06/26 08:36:28;;;;;;;17.27;12.20;;;;;;;28.51;46.08;99611.16;4939081;29;20079;-66
2021/06/26 08:38:56;;;;;;;15.65;12.05;;;;;;;28.74;45.77;99620.81;4939038;29;20499;-67
2021/06/26 08:41:26;;;;;;;15.70;11.95;;;;;;;28.68;45.03;99608.13;4938748;29;20071;-66
2021/06/26 08:43:56;;;;;;;15.10;11.88;;;;;;;28.66;44.57;99610.03;4939177;29;20447;-66
2021/06/26 08:46:31;;;;;;;13.50;11.30;;;;;;;28.62;44.17;99608.59;4942501;29;20050;-66
2021/06/26 08:49:01;;;;;;;15.60;11.00;;;;;;;28.61;43.90;99609.53;4957994;28;20051;-66
2021/06/26 08:51:30;;;;;;;17.15;12.05;;;;;;;28.78;44.11;99614.34;4957878;29;20047;-66
2021/06/26 08:53:59;;;;;;;13.50;10.02;;;;;;;28.93;43.17;99602.66;4958001;29;20051;-67
2021/06/26 08:56:28;;;;;;;13.60;10.32;;;;;;;28.94;42.58;99601.69;4957849;28;20078;-66
2021/06/26 08:58:58;;;;;;;15.02;10.73;;;;;;;29.02;42.63;99601.09;4956553;29;20059;-67
2021/06/26 09:01:29;;;;;;;12.63;9.85;;;;;;;29.16;42.36;99593.81;4956552;28;20050;-67
2021/06/26 09:04:04;;;;;;;12.50;9.98;;;;;;;29.14;42.36;99605.41;4957752;29;20070;-67
2021/06/26 09:06:35;;;;;;;12.50;9.85;;;;;;;28.86;42.27;99600.63;4957805;28;20098;-67
2021/06/26 09:09:04;;;;;;;13.60;10.20;;;;;;;28.91;42.27;99604.56;4957632;29;20043;-67
2021/06/26 09:11:34;;;;;;;13.27;9.90;;;;;;;29.04;42.06;99600.03;4957751;28;20079;-66
2021/06/26 09:14:03;;;;;;;11.65;9.30;;;;;;;29.15;41.18;99601.84;4957533;29;20129;-67
2021/06/26 09:16:34;;;;;;;12.93;9.70;;;;;;;29.18;40.82;99596.31;4957427;29;20051;-67
2021/06/26 09:19:13;;;;;;;13.65;10.48;;;;;;;29.39;41.57;99593.81;4956343;29;20047;-67
2021/06/26 09:21:43;;;;;;;12.75;9.63;;;;;;;29.49;41.85;99589.50;4957386;29;20049;-69
2021/06/26 09:24:13;;;;;;;11.52;8.25;;;;;;;29.60;40.78;99581.59;4957608;29;20047;-68
2021/06/26 09:26:44;;;;;;;11.38;8.70;;;;;;;29.63;40.30;99586.59;4957671;29;20078;-68
2021/06/26 09:29:15;;;;;;;11.63;9.18;;;;;;;29.81;40.34;99598.28;4957130;29;20047;-67
2021/06/26 09:31:53;;;;;;;12.70;9.68;;;;;;;30.14;40.66;99587.63;4957309;28;20082;-68
2021/06/26 09:34:24;;;;;;;12.80;9.43;;;;;;;30.10;39.64;99586.22;4957143;29;20063;-68
2021/06/26 09:37:01;;;;;;;11.00;8.63;;;;;;;29.91;39.88;99583.44;4957748;29;20088;-69
2021/06/26 09:39:35;;;;;;;11.20;9.05;;;;;;;29.93;40.90;99578.03;4957340;28;20554;-68
2021/06/26 09:42:16;;;;;;;13.07;9.07;;;;;;;30.07;40.39;99581.19;4957012;28;20063;-68
2021/06/26 09:44:54;;;;;;;11.18;8.90;;;;;;;29.99;39.79;99578.38;4957093;29;20566;-67
2021/06/26 09:47:31;;;;;;;10.38;8.45;;;;;;;29.97;39.79;99575.00;4957652;28;20070;-68
2021/06/26 09:50:13;;;;;;;11.23;8.95;;;;;;;30.14;40.62;99569.19;4957017;28;20106;-69
2021/06/26 09:52:47;;;;;;;11.00;7.82;;;;;;;30.34;40.52;99568.41;4956882;29;20135;-68
2021/06/26 09:55:22;;;;;;;11.52;8.48;;;;;;;30.43;39.57;99572.91;4956910;29;20494;-67
2021/06/26 09:57:55;;;;;;;10.23;8.13;;;;;;;30.39;39.26;99560.97;4957459;28;20118;-67
2021/06/26 10:00:26;;;;;;;10.10;8.32;;;;;;;30.40;38.95;99567.88;4956810;29;20495;-68
2021/06/26 10:02:57;;;;;;;10.55;8.15;;;;;;;30.57;40.61;99573.53;4956951;29;20491;-68
2021/06/26 10:05:27;;;;;;;10.25;7.97;;;;;;;30.55;40.23;99572.84;4956890;29;20060;-68
2021/06/26 10:08:00;;;;;;;8.80;7.18;;;;;;;30.52;39.89;99581.00;4956671;29;20098;-69
2021/06/26 10:10:29;;;;;;;12.23;8.43;;;;;;;30.38;38.95;99580.34;4956698;29;20471;-67
2021/06/26 10:12:59;;;;;;;10.55;7.95;;;;;;;30.23;38.07;99575.50;4956287;28;20051;-68
2021/06/26 10:15:31;;;;;;;8.73;7.50;;;;;;;30.34;38.84;99576.31;4956791;29;20051;-68
2021/06/26 10:18:06;;;;;;;9.57;7.45;;;;;;;30.43;38.50;99559.72;4956890;28;20079;-68
2021/06/26 10:20:37;;;;;;;9.52;7.43;;;;;;;30.38;37.92;99564.53;4956716;29;20047;-71
2021/06/26 10:23:11;;;;;;;9.20;7.03;;;;;;;30.69;38.68;99569.88;4956397;29;20051;-69
2021/06/26 10:25:42;;;;;;;10.52;7.68;;;;;;;30.78;37.85;99567.28;4956534;29;20563;-69
2021/06/26 10:28:13;;;;;;;9.68;7.43;;;;;;;30.88;37.59;99562.06;4956402;29;20055;-68
2021/06/26 10:30:43;;;;;;;9.98;7.00;;;;;;;30.93;37.37;99570.44;4956483;29;20057;-70
2021/06/26 10:33:14;;;;;;;9.75;6.93;;;;;;;30.94;39.03;99569.44;4956445;29;20047;-69
2021/06/26 10:35:53;;;;;;;9.50;7.75;;;;;;;31.26;38.55;99566.66;4956188;29;20414;-69
2021/06/26 10:38:23;;;;;;;9.35;7.43;;;;;;;31.58;38.29;99557.56;4956106;28;20518;-71
2021/06/26 10:40:56;;;;;;;10.02;7.03;;;;;;;31.37;36.76;99562.09;4956075;29;20047;-69
2021/06/26 10:43:30;;;;;;;9.40;7.32;;;;;;;31.01;36.76;99560.88;4956047;29;20506;-69
2021/06/26 10:46:11;;;;;;;9.70;6.45;;;;;;;30.80;36.40;99559.22;4956312;28;20067;-67
2021/06/26 10:49:01;;;;;;;8.50;6.07;;;;;;;31.04;36.41;99559.78;4956125;29;20102;-69
2021/06/26 10:51:32;;;;;;;10.10;7.03;;;;;;;31.20;35.92;99554.81;4956028;29;20089;-68
2021/06/26 10:54:13;;;;;;;7.53;5.70;;;;;;;31.30;35.49;99563.59;4955910;29;20059;-68
2021/06/26 10:56:47;;;;;;;8.75;6.60;;;;;;;31.29;35.04;99559.28;4956061;28;20055;-69
2021/06/26 10:59:18;;;;;;;8.57;5.93;;;;;;;31.13;35.85;99566.88;4955763;28;20078;-68
2021/06/26 11:01:59;;;;;;;8.80;6.25;;;;;;;31.44;35.91;99560.59;4955632;29;20131;-68
2021/06/26 11:04:31;;;;;;;8.75;7.00;;;;;;;31.59;37.19;99564.53;4955671;29;20059;-68
2021/06/26 11:07:06;;;;;;;9.10;6.70;;;;;;;31.83;36.97;99558.00;4955750;28;20043;-67
2021/06/26 11:09:37;;;;;;;8.77;6.47;;;;;;;31.94;37.14;99557.91;4955589;29;20534;-68
2021/06/26 11:12:11;;;;;;;7.47;6.25;;;;;;;31.97;36.33;99557.59;4955699;29;20063;-69
2021/06/26 11:14:49;;;;;;;7.93;5.88;;;;;;;31.83;36.86;99553.56;4955710;29;20050;-69
2021/06/26 11:17:21;;;;;;;8.40;6.90;;;;;;;31.60;37.17;99546.91;4955539;29;20062;-68
2021/06/26 11:19:52;;;;;;;8.45;6.50;;;;;;;31.48;38.36;99548.81;4955588;29;20102;-69
2021/06/26 11:22:21;;;;;;;8.55;6.50;;;;;;;30.88;38.99;99560.22;4955282;28;20051;-68
2021/06/26 11:25:01;;;;;;;9.68;6.70;;;;;;;30.28;39.60;99558.34;4954982;29;20384;-69
2021/06/26 11:27:30;;;;;;;8.38;6.95;;;;;;;29.95;40.88;99562.94;4955430;29;20055;-69
2021/06/26 11:30:05;;;;;;;8.52;6.60;;;;;;;29.74;40.99;99549.72;4955464;29;20051;-69
2021/06/26 11:32:35;;;;;;;8.27;6.18;;;;;;;30.39;40.17;99560.97;4955319;28;20146;-69
2021/06/26 11:35:11;;;;;;;8.07;5.93;;;;;;;31.02;38.00;99556.44;4955268;29;20058;-68
2021/06/26 11:37:42;;;;;;;7.70;5.75;;;;;;;31.46;38.40;99550.75;4955430;28;20130;-69
2021/06/26 11:40:20;;;;;;;9.32;6.43;;;;;;;31.68;37.22;99541.75;4955294;28;20114;-70
2021/06/26 11:42:55;;;;;;;8.80;6.88;;;;;;;31.70;35.52;99539.78;4954667;29;20499;-68
2021/06/26 11:45:30;;;;;;;8.15;6.18;;;;;;;31.74;35.92;99533.28;4955588;28;20055;-68